sensor_id;sensor_type;location;lat;lon;timestamp;pressure;altitude;pressure_sealevel;temperature;humidity
39435;BME280;66825;51.880;-0.518;2023-12-28T00:01:07;99139.06;;;16.25;48.00
39435;BME280;66825;51.880;-0.518;2023-12-28T00:03:32;99152.66;;;16.25;48.21
39435;BME280;66825;51.880;-0.518;2023-12-28T00:05:57;99162.72;;;16.24;48.03
39435;BME280;66825;51.880;-0.518;2023-12-28T00:08:23;99147.53;;;16.23;48.31
39435;BME280;66825;51.880;-0.518;2023-12-28T00:10:48;99156.81;;;16.22;48.32
39435;BME280;66825;51.880;-0.518;2023-12-28T00:13:13;99134.25;;;16.22;48.03
39435;BME280;66825;51.880;-0.518;2023-12-28T00:15:39;99124.22;;;16.22;48.37
39435;BME280;66825;51.880;-0.518;2023-12-28T00:18:04;99131.06;;;16.19;47.95
39435;BME280;66825;51.880;-0.518;2023-12-28T00:20:29;99140.03;;;16.20;47.99
39435;BME280;66825;51.880;-0.518;2023-12-28T00:22:55;99164.81;;;16.18;48.32
39435;BME280;66825;51.880;-0.518;2023-12-28T00:25:20;99157.44;;;16.19;48.29
39435;BME280;66825;51.880;-0.518;2023-12-28T00:27:45;99158.25;;;16.19;48.20
39435;BME280;66825;51.880;-0.518;2023-12-28T00:30:11;99172.16;;;16.18;48.15
39435;BME280;66825;51.880;-0.518;2023-12-28T00:32:36;99054.13;;;15.45;48.27
39435;BME280;66825;51.880;-0.518;2023-12-28T00:35:02;99162.41;;;16.17;48.22
39435;BME280;66825;51.880;-0.518;2023-12-28T00:37:27;99163.50;;;16.16;48.20
39435;BME280;66825;51.880;-0.518;2023-12-28T00:39:52;99171.66;;;16.16;48.05
39435;BME280;66825;51.880;-0.518;2023-12-28T00:42:18;99182.88;;;16.14;48.26
39435;BME280;66825;51.880;-0.518;2023-12-28T00:44:44;99177.44;;;16.14;47.97
39435;BME280;66825;51.880;-0.518;2023-12-28T00:47:09;99173.94;;;16.14;48.05
39435;BME280;66825;51.880;-0.518;2023-12-28T00:49:35;99178.53;;;16.13;48.36
39435;BME280;66825;51.880;-0.518;2023-12-28T00:52:00;99186.69;;;16.13;48.08
39435;BME280;66825;51.880;-0.518;2023-12-28T00:54:25;99192.13;;;16.13;47.99
39435;BME280;66825;51.880;-0.518;2023-12-28T00:56:50;99191.34;;;16.13;48.53
39435;BME280;66825;51.880;-0.518;2023-12-28T00:59:16;99192.47;;;16.12;48.21
39435;BME280;66825;51.880;-0.518;2023-12-28T01:01:41;99199.81;;;16.11;48.33
39435;BME280;66825;51.880;-0.518;2023-12-28T01:04:06;99200.94;;;16.10;48.19
39435;BME280;66825;51.880;-0.518;2023-12-28T01:06:32;99179.19;;;16.10;48.35
39435;BME280;66825;51.880;-0.518;2023-12-28T01:08:57;99191.97;;;16.10;48.37
39435;BME280;66825;51.880;-0.518;2023-12-28T01:11:22;99188.47;;;16.09;48.08
39435;BME280;66825;51.880;-0.518;2023-12-28T01:13:48;99070.88;;;15.30;48.19
39435;BME280;66825;51.880;-0.518;2023-12-28T01:16:13;99203.16;;;16.08;48.03
39435;BME280;66825;51.880;-0.518;2023-12-28T01:18:39;99192.63;;;16.07;48.35
39435;BME280;66825;51.880;-0.518;2023-12-28T01:21:04;99193.41;;;16.07;48.18
39435;BME280;66825;51.880;-0.518;2023-12-28T01:23:30;99208.13;;;16.06;48.31
39435;BME280;66825;51.880;-0.518;2023-12-28T01:25:56;99210.03;;;16.06;48.13
39435;BME280;66825;51.880;-0.518;2023-12-28T01:28:21;99207.31;;;16.06;48.26
39435;BME280;66825;51.880;-0.518;2023-12-28T01:30:47;99201.09;;;16.05;47.83
39435;BME280;66825;51.880;-0.518;2023-12-28T01:33:12;99202.22;;;16.04;48.02
39435;BME280;66825;51.880;-0.518;2023-12-28T01:35:37;99212.28;;;16.03;48.29
39435;BME280;66825;51.880;-0.518;2023-12-28T01:38:03;99217.72;;;16.03;47.91
39435;BME280;66825;51.880;-0.518;2023-12-28T01:40:28;99226.97;;;16.02;48.12
39435;BME280;66825;51.880;-0.518;2023-12-28T01:42:54;99226.19;;;16.02;48.29
39435;BME280;66825;51.880;-0.518;2023-12-28T01:45:19;99211.78;;;16.01;48.06
39435;BME280;66825;51.880;-0.518;2023-12-28T01:47:44;99214.50;;;16.01;48.36
39435;BME280;66825;51.880;-0.518;2023-12-28T01:50:10;99219.16;;;16.01;48.06
39435;BME280;66825;51.880;-0.518;2023-12-28T01:52:36;99237.38;;;16.00;48.31
39435;BME280;66825;51.880;-0.518;2023-12-28T01:55:02;99223.78;;;16.00;48.14
39435;BME280;66825;51.880;-0.518;2023-12-28T01:57:27;99205.06;;;15.99;48.19
39435;BME280;66825;51.880;-0.518;2023-12-28T01:59:52;99215.94;;;15.99;48.24
39435;BME280;66825;51.880;-0.518;2023-12-28T02:02:18;99220.91;;;15.97;48.23
39435;BME280;66825;51.880;-0.518;2023-12-28T02:04:44;99224.41;;;15.97;48.33
39435;BME280;66825;51.880;-0.518;2023-12-28T02:07:10;99236.41;;;15.96;48.27
39435;BME280;66825;51.880;-0.518;2023-12-28T02:09:35;99230.19;;;15.96;48.09
39435;BME280;66825;51.880;-0.518;2023-12-28T02:12:01;99246.47;;;15.96;48.44
39435;BME280;66825;51.880;-0.518;2023-12-28T02:14:27;99253.03;;;15.95;47.92
39435;BME280;66825;51.880;-0.518;2023-12-28T02:19:42;99248.72;;;15.94;48.16
39435;BME280;66825;51.880;-0.518;2023-12-28T02:22:09;99250.63;;;15.93;48.17
39435;BME280;66825;51.880;-0.518;2023-12-28T02:27:19;99266.94;;;15.93;48.40
39435;BME280;66825;51.880;-0.518;2023-12-28T02:29:45;99257.19;;;15.92;48.15
39435;BME280;66825;51.880;-0.518;2023-12-28T02:32:10;99269.94;;;15.92;48.18
39435;BME280;66825;51.880;-0.518;2023-12-28T02:34:37;99262.91;;;15.91;48.03
39435;BME280;66825;51.880;-0.518;2023-12-28T02:37:03;99291.69;;;15.92;48.12
39435;BME280;66825;51.880;-0.518;2023-12-28T02:39:29;99281.94;;;15.91;47.93
39435;BME280;66825;51.880;-0.518;2023-12-28T02:41:55;99269.50;;;15.90;48.32
39435;BME280;66825;51.880;-0.518;2023-12-28T02:44:21;99265.94;;;15.89;48.35
39435;BME280;66825;51.880;-0.518;2023-12-28T02:46:46;99273.31;;;15.88;48.32
39435;BME280;66825;51.880;-0.518;2023-12-28T02:49:12;99291.50;;;15.88;48.14
39435;BME280;66825;51.880;-0.518;2023-12-28T02:51:37;99295.03;;;15.88;48.14
39435;BME280;66825;51.880;-0.518;2023-12-28T02:54:03;99182.75;;;15.27;48.33
39435;BME280;66825;51.880;-0.518;2023-12-28T02:56:28;99293.44;;;15.87;48.04
39435;BME280;66825;51.880;-0.518;2023-12-28T02:58:54;99287.19;;;15.87;47.97
39435;BME280;66825;51.880;-0.518;2023-12-28T03:01:20;99289.13;;;15.86;48.05
39435;BME280;66825;51.880;-0.518;2023-12-28T03:03:45;99297.28;;;15.86;48.10
39435;BME280;66825;51.880;-0.518;2023-12-28T03:06:11;99287.50;;;15.85;48.28
39435;BME280;66825;51.880;-0.518;2023-12-28T03:08:36;99293.75;;;15.86;48.18
39435;BME280;66825;51.880;-0.518;2023-12-28T03:11:01;99300.31;;;15.85;48.43
39435;BME280;66825;51.880;-0.518;2023-12-28T03:13:27;99291.34;;;15.84;48.32
39435;BME280;66825;51.880;-0.518;2023-12-28T03:15:53;99303.03;;;15.85;48.09
39435;BME280;66825;51.880;-0.518;2023-12-28T03:18:18;99295.16;;;15.83;48.33
39435;BME280;66825;51.880;-0.518;2023-12-28T03:20:43;99288.09;;;15.82;48.20
39435;BME280;66825;51.880;-0.518;2023-12-28T03:23:11;99297.88;;;15.83;48.40
39435;BME280;66825;51.880;-0.518;2023-12-28T03:25:36;99291.66;;;15.83;48.11
39435;BME280;66825;51.880;-0.518;2023-12-28T03:28:01;99290.03;;;15.82;48.36
39435;BME280;66825;51.880;-0.518;2023-12-28T03:30:27;99305.53;;;15.81;48.16
39435;BME280;66825;51.880;-0.518;2023-12-28T03:32:52;99307.44;;;15.81;48.36
39435;BME280;66825;51.880;-0.518;2023-12-28T03:35:18;99319.41;;;15.80;48.05
39435;BME280;66825;51.880;-0.518;2023-12-28T03:37:43;99327.28;;;15.81;48.18
39435;BME280;66825;51.880;-0.518;2023-12-28T03:40:09;99342.75;;;15.81;48.40
39435;BME280;66825;51.880;-0.518;2023-12-28T03:42:34;99343.84;;;15.80;48.19
39435;BME280;66825;51.880;-0.518;2023-12-28T03:44:59;99350.41;;;15.79;48.39
39435;BME280;66825;51.880;-0.518;2023-12-28T03:47:25;99234.22;;;15.09;48.08
39435;BME280;66825;51.880;-0.518;2023-12-28T03:49:50;99323.25;;;15.79;48.39
39435;BME280;66825;51.880;-0.518;2023-12-28T03:52:15;99321.66;;;15.78;48.29
39435;BME280;66825;51.880;-0.518;2023-12-28T03:54:41;99318.13;;;15.77;48.08
39435;BME280;66825;51.880;-0.518;2023-12-28T03:57:06;99311.09;;;15.76;48.17
39435;BME280;66825;51.880;-0.518;2023-12-28T03:59:31;99327.38;;;15.76;48.15
39435;BME280;66825;51.880;-0.518;2023-12-28T04:01:57;99331.22;;;15.75;48.23
39435;BME280;66825;51.880;-0.518;2023-12-28T04:04:22;99325.78;;;15.75;48.23
39435;BME280;66825;51.880;-0.518;2023-12-28T04:06:48;99309.03;;;15.73;48.24
39435;BME280;66825;51.880;-0.518;2023-12-28T04:09:13;99322.59;;;15.73;48.19
39435;BME280;66825;51.880;-0.518;2023-12-28T04:11:39;99321.00;;;15.72;48.21
39435;BME280;66825;51.880;-0.518;2023-12-28T04:14:04;99333.75;;;15.71;48.57
39435;BME280;66825;51.880;-0.518;2023-12-28T04:16:30;99321.00;;;15.72;48.31
39435;BME280;66825;51.880;-0.518;2023-12-28T04:18:55;99331.88;;;15.72;48.30
39435;BME280;66825;51.880;-0.518;2023-12-28T04:21:21;99266.53;;;15.28;48.35
39435;BME280;66825;51.880;-0.518;2023-12-28T04:23:46;99332.97;;;15.71;48.31
39435;BME280;66825;51.880;-0.518;2023-12-28T04:26:12;99325.16;;;15.69;48.41
39435;BME280;66825;51.880;-0.518;2023-12-28T04:28:37;99338.72;;;15.69;48.23
39435;BME280;66825;51.880;-0.518;2023-12-28T04:31:05;99334.91;;;15.70;48.18
39435;BME280;66825;51.880;-0.518;2023-12-28T04:33:31;99347.66;;;15.70;48.47
39435;BME280;66825;51.880;-0.518;2023-12-28T04:35:57;99334.09;;;15.70;48.38
39435;BME280;66825;51.880;-0.518;2023-12-28T04:38:22;99339.50;;;15.70;48.35
39435;BME280;66825;51.880;-0.518;2023-12-28T04:40:47;99327.06;;;15.69;48.29
39435;BME280;66825;51.880;-0.518;2023-12-28T04:43:12;99335.19;;;15.69;48.21
39435;BME280;66825;51.880;-0.518;2023-12-28T04:45:38;99327.88;;;15.69;48.37
39435;BME280;66825;51.880;-0.518;2023-12-28T04:48:03;99335.19;;;15.69;48.28
39435;BME280;66825;51.880;-0.518;2023-12-28T04:50:29;99345.59;;;15.67;48.31
39435;BME280;66825;51.880;-0.518;2023-12-28T04:52:55;99339.03;;;15.68;48.32
39435;BME280;66825;51.880;-0.518;2023-12-28T04:55:20;99351.81;;;15.67;48.22
39435;BME280;66825;51.880;-0.518;2023-12-28T04:57:46;99338.22;;;15.67;48.42
39435;BME280;66825;51.880;-0.518;2023-12-28T05:00:11;99310.81;;;15.37;48.26
39435;BME280;66825;51.880;-0.518;2023-12-28T05:02:37;99349.09;;;15.67;48.24
39435;BME280;66825;51.880;-0.518;2023-12-28T05:05:02;99351.03;;;15.67;48.24
39435;BME280;66825;51.880;-0.518;2023-12-28T05:07:28;99349.41;;;15.66;48.47
39435;BME280;66825;51.880;-0.518;2023-12-28T05:09:53;99348.59;;;15.65;48.50
39435;BME280;66825;51.880;-0.518;2023-12-28T05:12:19;99354.84;;;15.66;48.28
39435;BME280;66825;51.880;-0.518;2023-12-28T05:14:44;99352.13;;;15.66;48.26
39435;BME280;66825;51.880;-0.518;2023-12-28T05:17:09;99345.09;;;15.65;48.58
39435;BME280;66825;51.880;-0.518;2023-12-28T05:19:35;99358.66;;;15.65;48.05
39435;BME280;66825;51.880;-0.518;2023-12-28T05:22:00;99353.25;;;15.65;48.28
39435;BME280;66825;51.880;-0.518;2023-12-28T05:24:29;99363.28;;;15.64;48.36
39435;BME280;66825;51.880;-0.518;2023-12-28T05:26:54;99355.47;;;15.63;48.50
39435;BME280;66825;51.880;-0.518;2023-12-28T05:29:19;99355.47;;;15.63;48.27
39435;BME280;66825;51.880;-0.518;2023-12-28T05:31:45;99360.09;;;15.62;48.62
39435;BME280;66825;51.880;-0.518;2023-12-28T05:34:10;99357.38;;;15.62;48.32
39435;BME280;66825;51.880;-0.518;2023-12-28T05:36:35;99244.00;;;14.87;48.56
39435;BME280;66825;51.880;-0.518;2023-12-28T05:39:01;99366.31;;;15.63;48.54
39435;BME280;66825;51.880;-0.518;2023-12-28T05:41:27;99371.75;;;15.63;48.18
39435;BME280;66825;51.880;-0.518;2023-12-28T05:43:52;99367.75;;;15.60;48.43
39435;BME280;66825;51.880;-0.518;2023-12-28T05:46:18;99362.31;;;15.60;48.26
39435;BME280;66825;51.880;-0.518;2023-12-28T05:48:43;99367.75;;;15.60;48.34
39435;BME280;66825;51.880;-0.518;2023-12-28T05:51:08;99373.19;;;15.60;48.55
39435;BME280;66825;51.880;-0.518;2023-12-28T05:53:34;99380.53;;;15.60;48.33
39435;BME280;66825;51.880;-0.518;2023-12-28T05:56:00;99382.44;;;15.59;48.55
39435;BME280;66825;51.880;-0.518;2023-12-28T05:58:28;99383.25;;;15.60;48.46
39435;BME280;66825;51.880;-0.518;2023-12-28T06:00:53;99385.16;;;15.59;48.35
39435;BME280;66825;51.880;-0.518;2023-12-28T06:03:19;99377.31;;;15.57;48.40
39435;BME280;66825;51.880;-0.518;2023-12-28T06:05:44;99380.03;;;15.57;48.39
39435;BME280;66825;51.880;-0.518;2023-12-28T06:08:10;99393.63;;;15.57;48.43
39435;BME280;66825;51.880;-0.518;2023-12-28T06:10:36;99384.66;;;15.57;48.46
39435;BME280;66825;51.880;-0.518;2023-12-28T06:13:01;99384.66;;;15.57;48.44
39435;BME280;66825;51.880;-0.518;2023-12-28T06:15:27;99400.94;;;15.57;48.35
39435;BME280;66825;51.880;-0.518;2023-12-28T06:17:52;99403.66;;;15.57;48.27
39435;BME280;66825;51.880;-0.518;2023-12-28T06:20:17;99389.28;;;15.56;48.46
39435;BME280;66825;51.880;-0.518;2023-12-28T06:22:44;99393.13;;;15.55;48.39
39435;BME280;66825;51.880;-0.518;2023-12-28T06:25:13;99403.97;;;15.55;48.49
39435;BME280;66825;51.880;-0.518;2023-12-28T06:27:38;99405.91;;;15.55;48.35
39435;BME280;66825;51.880;-0.518;2023-12-28T06:30:04;99413.22;;;15.54;48.51
39435;BME280;66825;51.880;-0.518;2023-12-28T06:32:29;99415.16;;;15.54;48.42
39435;BME280;66825;51.880;-0.518;2023-12-28T06:34:54;99420.59;;;15.54;48.36
39435;BME280;66825;51.880;-0.518;2023-12-28T06:37:20;99414.34;;;15.53;48.63
39435;BME280;66825;51.880;-0.518;2023-12-28T06:39:45;99421.69;;;15.53;48.54
39435;BME280;66825;51.880;-0.518;2023-12-28T06:42:10;99421.69;;;15.53;48.38
39435;BME280;66825;51.880;-0.518;2023-12-28T06:44:36;99436.38;;;15.52;48.57
39435;BME280;66825;51.880;-0.518;2023-12-28T06:47:01;99436.38;;;15.52;48.45
39435;BME280;66825;51.880;-0.518;2023-12-28T06:49:26;99436.38;;;15.52;48.37
39435;BME280;66825;51.880;-0.518;2023-12-28T06:51:52;99450.78;;;15.52;48.43
39435;BME280;66825;51.880;-0.518;2023-12-28T06:54:17;99451.88;;;15.51;48.58
39435;BME280;66825;51.880;-0.518;2023-12-28T06:56:42;99454.59;;;15.51;48.41
39435;BME280;66825;51.880;-0.518;2023-12-28T06:59:08;99450.28;;;15.50;48.39
39435;BME280;66825;51.880;-0.518;2023-12-28T07:01:37;99452.97;;;15.50;48.52
39435;BME280;66825;51.880;-0.518;2023-12-28T07:04:03;99451.38;;;15.49;48.44
39435;BME280;66825;51.880;-0.518;2023-12-28T07:06:28;99444.03;;;15.50;48.38
39435;BME280;66825;51.880;-0.518;2023-12-28T07:08:53;99447.06;;;15.48;48.39
39435;BME280;66825;51.880;-0.518;2023-12-28T07:11:19;99447.06;;;15.48;48.40
39435;BME280;66825;51.880;-0.518;2023-12-28T07:13:44;99447.06;;;15.48;48.34
39435;BME280;66825;51.880;-0.518;2023-12-28T07:16:09;99438.91;;;15.48;48.49
39435;BME280;66825;51.880;-0.518;2023-12-28T07:18:34;99325.75;;;14.72;48.56
39435;BME280;66825;51.880;-0.518;2023-12-28T07:21:00;99450.88;;;15.47;48.46
39435;BME280;66825;51.880;-0.518;2023-12-28T07:23:26;99447.38;;;15.47;48.57
39435;BME280;66825;51.880;-0.518;2023-12-28T07:25:52;99457.13;;;15.48;48.55
39435;BME280;66825;51.880;-0.518;2023-12-28T07:28:17;99457.41;;;15.46;48.46
39435;BME280;66825;51.880;-0.518;2023-12-28T07:30:42;99454.69;;;15.46;48.43
39435;BME280;66825;51.880;-0.518;2023-12-28T07:33:08;99463.97;;;15.45;48.35
39435;BME280;66825;51.880;-0.518;2023-12-28T07:35:33;99465.56;;;15.46;48.37
39435;BME280;66825;51.880;-0.518;2023-12-28T07:37:58;99473.69;;;15.46;48.36
39435;BME280;66825;51.880;-0.518;2023-12-28T07:40:24;99489.19;;;15.46;48.38
39435;BME280;66825;51.880;-0.518;2023-12-28T07:42:49;99355.88;;;14.70;48.36
39435;BME280;66825;51.880;-0.518;2023-12-28T07:45:14;99483.16;;;15.49;48.38
39435;BME280;66825;51.880;-0.518;2023-12-28T07:47:40;99488.28;;;15.50;48.36
39435;BME280;66825;51.880;-0.518;2023-12-28T07:50:05;99485.75;;;15.54;48.50
39435;BME280;66825;51.880;-0.518;2023-12-28T07:52:31;99488.63;;;15.57;48.51
39435;BME280;66825;51.880;-0.518;2023-12-28T07:54:56;99486.91;;;15.62;48.35
39435;BME280;66825;51.880;-0.518;2023-12-28T07:57:22;99487.91;;;15.66;48.37
39435;BME280;66825;51.880;-0.518;2023-12-28T07:59:47;99486.16;;;15.70;48.22
39435;BME280;66825;51.880;-0.518;2023-12-28T08:02:12;99494.47;;;15.73;48.26
39435;BME280;66825;51.880;-0.518;2023-12-28T08:04:37;99487.31;;;15.78;48.36
39435;BME280;66825;51.880;-0.518;2023-12-28T08:07:03;99480.16;;;15.82;48.33
39435;BME280;66825;51.880;-0.518;2023-12-28T08:09:29;99472.22;;;15.85;48.33
39435;BME280;66825;51.880;-0.518;2023-12-28T08:11:54;99477.81;;;15.89;48.01
39435;BME280;66825;51.880;-0.518;2023-12-28T08:14:20;99478.50;;;15.95;48.12
39435;BME280;66825;51.880;-0.518;2023-12-28T08:16:45;99474.53;;;16.01;48.25
39435;BME280;66825;51.880;-0.518;2023-12-28T08:19:10;99480.31;;;16.08;48.17
39435;BME280;66825;51.880;-0.518;2023-12-28T08:21:36;99483.69;;;16.14;48.58
39435;BME280;66825;51.880;-0.518;2023-12-28T08:24:01;99489.47;;;16.21;48.12
39435;BME280;66825;51.880;-0.518;2023-12-28T08:26:27;99497.16;;;16.28;48.17
39435;BME280;66825;51.880;-0.518;2023-12-28T08:28:52;99502.16;;;16.34;48.37
39435;BME280;66825;51.880;-0.518;2023-12-28T08:31:17;99510.66;;;16.42;48.30
39435;BME280;66825;51.880;-0.518;2023-12-28T08:33:43;99447.09;;;16.11;48.19
39435;BME280;66825;51.880;-0.518;2023-12-28T08:36:08;99502.69;;;16.54;47.76
39435;BME280;66825;51.880;-0.518;2023-12-28T08:38:34;99505.28;;;16.59;47.65
39435;BME280;66825;51.880;-0.518;2023-12-28T08:40:59;99495.03;;;16.65;47.86
39435;BME280;66825;51.880;-0.518;2023-12-28T08:43:25;99494.09;;;16.70;47.45
39435;BME280;66825;51.880;-0.518;2023-12-28T08:45:50;99496.66;;;16.75;47.88
39435;BME280;66825;51.880;-0.518;2023-12-28T08:48:16;99497.31;;;16.80;47.63
39435;BME280;66825;51.880;-0.518;2023-12-28T08:50:41;99490.13;;;16.85;47.69
39435;BME280;66825;51.880;-0.518;2023-12-28T08:53:06;99488.84;;;16.91;47.99
39435;BME280;66825;51.880;-0.518;2023-12-28T08:55:32;99502.31;;;16.96;47.70
39435;BME280;66825;51.880;-0.518;2023-12-28T08:57:58;99493.97;;;17.01;47.79
39435;BME280;66825;51.880;-0.518;2023-12-28T09:00:24;99502.81;;;17.07;47.74
39435;BME280;66825;51.880;-0.518;2023-12-28T09:02:49;99512.72;;;17.11;47.31
39435;BME280;66825;51.880;-0.518;2023-12-28T09:05:15;99506.00;;;17.18;47.09
39435;BME280;66825;51.880;-0.518;2023-12-28T09:07:40;99514.00;;;17.23;47.52
39435;BME280;66825;51.880;-0.518;2023-12-28T09:10:09;99508.41;;;17.28;47.34
39435;BME280;66825;51.880;-0.518;2023-12-28T09:12:35;99519.16;;;17.33;47.60
39435;BME280;66825;51.880;-0.518;2023-12-28T09:15:00;99508.09;;;17.38;47.18
39435;BME280;66825;51.880;-0.518;2023-12-28T09:17:26;99504.72;;;17.41;46.83
39435;BME280;66825;51.880;-0.518;2023-12-28T09:19:51;99510.34;;;17.45;46.72
39435;BME280;66825;51.880;-0.518;2023-12-28T09:22:16;99517.84;;;17.48;46.64
39435;BME280;66825;51.880;-0.518;2023-12-28T09:24:41;99507.09;;;17.52;46.76
39435;BME280;66825;51.880;-0.518;2023-12-28T09:27:07;99517.84;;;17.57;46.66
39435;BME280;66825;51.880;-0.518;2023-12-28T09:29:32;99510.13;;;17.59;46.56
39435;BME280;66825;51.880;-0.518;2023-12-28T09:31:59;99502.94;;;17.63;46.56
39435;BME280;66825;51.880;-0.518;2023-12-28T09:34:24;99514.00;;;17.67;46.74
39435;BME280;66825;51.880;-0.518;2023-12-28T09:36:49;99513.03;;;17.71;46.55
39435;BME280;66825;51.880;-0.518;2023-12-28T09:39:15;99525.97;;;17.74;46.64
39435;BME280;66825;51.880;-0.518;2023-12-28T09:41:42;99526.94;;;17.78;46.29
39435;BME280;66825;51.880;-0.518;2023-12-28T09:44:12;99519.72;;;17.83;46.47
39435;BME280;66825;51.880;-0.518;2023-12-28T09:46:37;99523.72;;;17.85;46.62
39435;BME280;66825;51.880;-0.518;2023-12-28T09:49:06;99536.06;;;17.91;46.66
39435;BME280;66825;51.880;-0.518;2023-12-28T09:51:31;99533.97;;;17.97;46.51
39435;BME280;66825;51.880;-0.518;2023-12-28T09:53:56;99529.50;;;18.01;46.53
39435;BME280;66825;51.880;-0.518;2023-12-28T09:56:22;99525.78;;;18.06;46.48
39435;BME280;66825;51.880;-0.518;2023-12-28T09:58:48;99422.06;;;17.37;46.54
39435;BME280;66825;51.880;-0.518;2023-12-28T10:01:15;99532.31;;;18.14;46.67
39435;BME280;66825;51.880;-0.518;2023-12-28T10:03:42;99528.63;;;18.18;46.67
39435;BME280;66825;51.880;-0.518;2023-12-28T10:06:07;99533.88;;;18.23;46.63
39435;BME280;66825;51.880;-0.518;2023-12-28T10:08:32;99541.09;;;18.28;46.53
39435;BME280;66825;51.880;-0.518;2023-12-28T10:10:58;99544.75;;;18.32;47.01
39435;BME280;66825;51.880;-0.518;2023-12-28T10:13:25;99539.94;;;18.38;46.57
39435;BME280;66825;51.880;-0.518;2023-12-28T10:15:50;99535.44;;;18.42;46.58
39435;BME280;66825;51.880;-0.518;2023-12-28T10:18:18;99547.63;;;18.45;46.69
39435;BME280;66825;51.880;-0.518;2023-12-28T10:20:50;99539.56;;;18.48;46.59
39435;BME280;66825;51.880;-0.518;2023-12-28T10:23:16;99536.19;;;18.51;46.42
39435;BME280;66825;51.880;-0.518;2023-12-28T10:25:42;99543.72;;;18.54;46.12
39435;BME280;66825;51.880;-0.518;2023-12-28T10:28:07;99544.19;;;18.56;46.49
39435;BME280;66825;51.880;-0.518;2023-12-28T10:30:32;99541.91;;;18.58;46.44
39435;BME280;66825;51.880;-0.518;2023-12-28T10:32:58;99533.72;;;18.58;46.28
39435;BME280;66825;51.880;-0.518;2023-12-28T10:35:23;99535.34;;;18.60;46.24
39435;BME280;66825;51.880;-0.518;2023-12-28T10:37:49;99545.13;;;18.61;46.33
39435;BME280;66825;51.880;-0.518;2023-12-28T10:40:17;99536.94;;;18.61;46.06
39435;BME280;66825;51.880;-0.518;2023-12-28T10:42:55;99536.16;;;18.60;46.21
39435;BME280;66825;51.880;-0.518;2023-12-28T10:45:25;99535.03;;;18.61;46.09
39435;BME280;66825;51.880;-0.518;2023-12-28T10:47:56;99529.09;;;18.59;46.17
39435;BME280;66825;51.880;-0.518;2023-12-28T10:50:26;99521.69;;;18.60;46.19
39435;BME280;66825;51.880;-0.518;2023-12-28T10:52:54;99530.69;;;18.60;46.15
39435;BME280;66825;51.880;-0.518;2023-12-28T10:55:33;99521.69;;;18.60;46.37
39435;BME280;66825;51.880;-0.518;2023-12-28T10:58:02;99512.38;;;18.61;46.08
39435;BME280;66825;51.880;-0.518;2023-12-28T11:00:30;99522.50;;;18.60;46.26
39435;BME280;66825;51.880;-0.518;2023-12-28T11:03:02;99517.84;;;18.61;46.24
39435;BME280;66825;51.880;-0.518;2023-12-28T11:05:28;99512.38;;;18.61;46.34
39435;BME280;66825;51.880;-0.518;2023-12-28T11:07:55;99497.97;;;18.60;46.26
39435;BME280;66825;51.880;-0.518;2023-12-28T11:10:23;99500.69;;;18.60;46.03
39435;BME280;66825;51.880;-0.518;2023-12-28T11:12:50;99505.31;;;18.60;46.19
39435;BME280;66825;51.880;-0.518;2023-12-28T11:15:16;99489.31;;;18.58;46.17
39435;BME280;66825;51.880;-0.518;2023-12-28T11:17:42;99496.69;;;18.57;46.21
39435;BME280;66825;51.880;-0.518;2023-12-28T11:20:08;99499.44;;;18.57;46.16
39435;BME280;66825;51.880;-0.518;2023-12-28T11:22:35;99488.81;;;18.56;46.17
39435;BME280;66825;51.880;-0.518;2023-12-28T11:25:00;99497.00;;;18.56;46.33
39435;BME280;66825;51.880;-0.518;2023-12-28T11:27:32;99408.75;;;18.09;46.38
39435;BME280;66825;51.880;-0.518;2023-12-28T11:29:58;99474.41;;;18.55;46.22
39435;BME280;66825;51.880;-0.518;2023-12-28T11:32:23;99459.94;;;18.55;46.22
39435;BME280;66825;51.880;-0.518;2023-12-28T11:34:58;99456.44;;;18.54;46.43
39435;BME280;66825;51.880;-0.518;2023-12-28T11:37:23;99462.66;;;18.55;46.31
39435;BME280;66825;51.880;-0.518;2023-12-28T11:39:51;99459.94;;;18.55;46.33
39435;BME280;66825;51.880;-0.518;2023-12-28T11:42:19;99465.41;;;18.55;46.44
39435;BME280;66825;51.880;-0.518;2023-12-28T11:44:45;99447.13;;;18.55;46.28
39435;BME280;66825;51.880;-0.518;2023-12-28T11:47:11;99336.19;;;17.87;46.38
39435;BME280;66825;51.880;-0.518;2023-12-28T11:49:36;99442.44;;;18.56;46.55
39435;BME280;66825;51.880;-0.518;2023-12-28T11:52:02;99432.66;;;18.55;46.42
39435;BME280;66825;51.880;-0.518;2023-12-28T11:54:27;99437.34;;;18.54;46.36
39435;BME280;66825;51.880;-0.518;2023-12-28T11:56:53;99431.88;;;18.54;46.46
39435;BME280;66825;51.880;-0.518;2023-12-28T11:59:19;99429.50;;;18.53;46.51
39435;BME280;66825;51.880;-0.518;2023-12-28T12:01:49;99422.91;;;18.54;46.44
39435;BME280;66825;51.880;-0.518;2023-12-28T12:04:14;99426.75;;;18.53;46.41
39435;BME280;66825;51.880;-0.518;2023-12-28T12:06:39;99421.31;;;18.53;46.33
39435;BME280;66825;51.880;-0.518;2023-12-28T12:09:05;99436.84;;;18.52;46.34
39435;BME280;66825;51.880;-0.518;2023-12-28T12:11:30;99427.88;;;18.52;46.31
39435;BME280;66825;51.880;-0.518;2023-12-28T12:13:56;99423.22;;;18.52;46.16
39435;BME280;66825;51.880;-0.518;2023-12-28T12:16:21;99416.97;;;18.52;46.23
39435;BME280;66825;51.880;-0.518;2023-12-28T12:18:46;99425.94;;;18.52;46.21
39435;BME280;66825;51.880;-0.518;2023-12-28T12:21:12;99328.63;;;17.93;46.26
39435;BME280;66825;51.880;-0.518;2023-12-28T12:23:37;99429.50;;;18.53;46.21
39435;BME280;66825;51.880;-0.518;2023-12-28T12:26:06;99416.63;;;18.53;46.13
39435;BME280;66825;51.880;-0.518;2023-12-28T12:28:31;99404.94;;;18.53;46.49
39435;BME280;66825;51.880;-0.518;2023-12-28T12:30:57;99400.63;;;18.52;46.25
39435;BME280;66825;51.880;-0.518;2023-12-28T12:33:26;99410.41;;;18.53;46.48
39435;BME280;66825;51.880;-0.518;2023-12-28T12:35:52;99392.44;;;18.52;46.25
39435;BME280;66825;51.880;-0.518;2023-12-28T12:38:17;99407.69;;;18.53;46.43
39435;BME280;66825;51.880;-0.518;2023-12-28T12:40:43;99400.28;;;18.53;46.42
39435;BME280;66825;51.880;-0.518;2023-12-28T12:43:08;99394.03;;;18.53;46.35
39435;BME280;66825;51.880;-0.518;2023-12-28T12:45:34;99390.84;;;18.51;46.28
39435;BME280;66825;51.880;-0.518;2023-12-28T12:47:59;99393.56;;;18.51;46.11